sensor_id;sensor_type;location;lat;lon;timestamp;P1;durP1;ratioP1;P2;durP2;ratioP2
3259;SDS011;22469;48.150;14.004;2022-12-08T00:01:27;11.10;;;9.43;;
3259;SDS011;22469;48.150;14.004;2022-12-08T00:03:58;12.70;;;10.57;;
3259;SDS011;22469;48.150;14.004;2022-12-08T00:06:37;9.30;;;8.27;;
3259;SDS011;22469;48.150;14.004;2022-12-08T00:09:33;14.10;;;9.70;;
3259;SDS011;22469;48.150;14.004;2022-12-08T00:12:11;10.60;;;9.00;;
3259;SDS011;22469;48.150;14.004;2022-12-08T00:14:43;11.70;;;8.40;;
3259;SDS011;22469;48.150;14.004;2022-12-08T00:17:13;12.83;;;9.30;;
3259;SDS011;22469;48.150;14.004;2022-12-08T00:19:42;13.27;;;9.43;;
3259;SDS011;22469;48.150;14.004;2022-12-08T00:22:10;9.70;;;7.63;;
3259;SDS011;22469;48.150;14.004;2022-12-08T00:24:38;10.80;;;9.17;;
3259;SDS011;22469;48.150;14.004;2022-12-08T00:27:08;10.47;;;8.60;;
3259;SDS011;22469;48.150;14.004;2022-12-08T00:29:37;10.57;;;8.87;;
3259;SDS011;22469;48.150;14.004;2022-12-08T00:32:04;9.90;;;7.97;;
3259;SDS011;22469;48.150;14.004;2022-12-08T00:34:32;8.30;;;7.43;;
3259;SDS011;22469;48.150;14.004;2022-12-08T00:36:59;9.63;;;8.83;;
3259;SDS011;22469;48.150;14.004;2022-12-08T00:39:26;8.70;;;7.67;;
3259;SDS011;22469;48.150;14.004;2022-12-08T00:41:54;10.30;;;8.43;;
3259;SDS011;22469;48.150;14.004;2022-12-08T00:44:42;10.60;;;8.50;;
3259;SDS011;22469;48.150;14.004;2022-12-08T00:47:11;9.43;;;7.90;;
3259;SDS011;22469;48.150;14.004;2022-12-08T00:49:40;9.63;;;7.93;;
3259;SDS011;22469;48.150;14.004;2022-12-08T00:52:07;8.03;;;7.27;;
3259;SDS011;22469;48.150;14.004;2022-12-08T00:54:35;7.87;;;7.10;;
3259;SDS011;22469;48.150;14.004;2022-12-08T00:57:02;7.30;;;6.60;;
3259;SDS011;22469;48.150;14.004;2022-12-08T00:59:29;9.10;;;8.30;;
3259;SDS011;22469;48.150;14.004;2022-12-08T01:01:56;9.20;;;7.90;;
3259;SDS011;22469;48.150;14.004;2022-12-08T01:04:24;7.70;;;6.90;;
3259;SDS011;22469;48.150;14.004;2022-12-08T01:06:51;7.73;;;7.00;;
3259;SDS011;22469;48.150;14.004;2022-12-08T01:09:18;7.77;;;7.03;;
3259;SDS011;22469;48.150;14.004;2022-12-08T01:11:46;8.27;;;7.47;;
3259;SDS011;22469;48.150;14.004;2022-12-08T01:14:13;7.77;;;7.07;;
3259;SDS011;22469;48.150;14.004;2022-12-08T01:16:41;8.00;;;7.20;;
3259;SDS011;22469;48.150;14.004;2022-12-08T01:19:12;11.20;;;8.83;;
3259;SDS011;22469;48.150;14.004;2022-12-08T01:21:42;8.17;;;7.20;;
3259;SDS011;22469;48.150;14.004;2022-12-08T01:24:18;10.47;;;8.20;;
3259;SDS011;22469;48.150;14.004;2022-12-08T01:26:47;8.37;;;7.60;;
3259;SDS011;22469;48.150;14.004;2022-12-08T01:29:16;9.23;;;8.40;;
3259;SDS011;22469;48.150;14.004;2022-12-08T01:31:43;7.87;;;7.17;;
3259;SDS011;22469;48.150;14.004;2022-12-08T01:34:10;10.23;;;7.87;;
3259;SDS011;22469;48.150;14.004;2022-12-08T01:36:38;8.03;;;6.97;;
3259;SDS011;22469;48.150;14.004;2022-12-08T01:39:07;8.10;;;7.30;;
3259;SDS011;22469;48.150;14.004;2022-12-08T01:41:39;8.57;;;7.67;;
3259;SDS011;22469;48.150;14.004;2022-12-08T01:46:37;12.23;;;8.50;;
3259;SDS011;22469;48.150;14.004;2022-12-08T01:49:11;10.23;;;9.23;;
3259;SDS011;22469;48.150;14.004;2022-12-08T01:51:46;10.00;;;9.00;;
3259;SDS011;22469;48.150;14.004;2022-12-08T01:54:15;8.47;;;7.70;;
3259;SDS011;22469;48.150;14.004;2022-12-08T01:56:48;11.27;;;9.70;;
3259;SDS011;22469;48.150;14.004;2022-12-08T01:59:34;10.07;;;9.17;;
3259;SDS011;22469;48.150;14.004;2022-12-08T02:02:08;11.57;;;9.83;;
3259;SDS011;22469;48.150;14.004;2022-12-08T02:04:36;11.33;;;8.90;;
3259;SDS011;22469;48.150;14.004;2022-12-08T02:07:04;11.07;;;9.30;;
3259;SDS011;22469;48.150;14.004;2022-12-08T02:09:34;12.10;;;9.60;;
3259;SDS011;22469;48.150;14.004;2022-12-08T02:12:03;11.67;;;9.73;;
3259;SDS011;22469;48.150;14.004;2022-12-08T02:14:30;10.63;;;9.53;;
3259;SDS011;22469;48.150;14.004;2022-12-08T02:17:12;10.47;;;9.10;;
3259;SDS011;22469;48.150;14.004;2022-12-08T02:20:10;12.37;;;9.63;;
3259;SDS011;22469;48.150;14.004;2022-12-08T02:28:49;10.93;;;9.80;;
3259;SDS011;22469;48.150;14.004;2022-12-08T02:34:44;15.73;;;10.57;;
3259;SDS011;22469;48.150;14.004;2022-12-08T02:43:15;12.27;;;10.83;;
3259;SDS011;22469;48.150;14.004;2022-12-08T02:45:59;15.17;;;10.43;;
3259;SDS011;22469;48.150;14.004;2022-12-08T02:48:32;18.23;;;10.90;;
3259;SDS011;22469;48.150;14.004;2022-12-08T02:51:00;11.53;;;10.33;;
3259;SDS011;22469;48.150;14.004;2022-12-08T02:53:28;11.97;;;10.30;;
3259;SDS011;22469;48.150;14.004;2022-12-08T03:07:44;18.23;;;12.53;;
3259;SDS011;22469;48.150;14.004;2022-12-08T03:10:35;14.80;;;11.67;;
3259;SDS011;22469;48.150;14.004;2022-12-08T03:13:13;12.77;;;10.90;;
3259;SDS011;22469;48.150;14.004;2022-12-08T03:15:49;13.90;;;11.00;;
3259;SDS011;22469;48.150;14.004;2022-12-08T03:18:18;14.20;;;10.60;;
3259;SDS011;22469;48.150;14.004;2022-12-08T03:20:49;19.27;;;11.80;;
3259;SDS011;22469;48.150;14.004;2022-12-08T03:23:17;11.60;;;9.77;;
3259;SDS011;22469;48.150;14.004;2022-12-08T03:25:47;13.60;;;9.50;;
3259;SDS011;22469;48.150;14.004;2022-12-08T03:28:23;10.40;;;9.30;;
3259;SDS011;22469;48.150;14.004;2022-12-08T03:30:52;10.30;;;9.07;;
3259;SDS011;22469;48.150;14.004;2022-12-08T03:33:25;10.17;;;8.77;;
3259;SDS011;22469;48.150;14.004;2022-12-08T03:36:03;13.50;;;9.67;;
3259;SDS011;22469;48.150;14.004;2022-12-08T03:38:38;12.70;;;10.63;;
3259;SDS011;22469;48.150;14.004;2022-12-08T03:41:08;14.03;;;11.40;;
3259;SDS011;22469;48.150;14.004;2022-12-08T03:43:49;14.00;;;11.27;;
3259;SDS011;22469;48.150;14.004;2022-12-08T03:46:20;15.70;;;12.30;;
3259;SDS011;22469;48.150;14.004;2022-12-08T03:48:49;15.23;;;11.53;;
3259;SDS011;22469;48.150;14.004;2022-12-08T03:51:16;13.63;;;12.17;;
3259;SDS011;22469;48.150;14.004;2022-12-08T03:53:44;15.03;;;11.50;;
3259;SDS011;22469;48.150;14.004;2022-12-08T03:58:48;16.00;;;12.13;;
3259;SDS011;22469;48.150;14.004;2022-12-08T04:01:15;16.70;;;13.20;;
3259;SDS011;22469;48.150;14.004;2022-12-08T04:03:43;16.73;;;13.73;;
3259;SDS011;22469;48.150;14.004;2022-12-08T04:06:10;14.53;;;11.73;;
3259;SDS011;22469;48.150;14.004;2022-12-08T04:08:38;18.80;;;12.23;;
3259;SDS011;22469;48.150;14.004;2022-12-08T04:11:06;17.27;;;13.13;;
3259;SDS011;22469;48.150;14.004;2022-12-08T04:13:33;18.77;;;12.77;;
3259;SDS011;22469;48.150;14.004;2022-12-08T04:16:03;15.97;;;12.67;;
3259;SDS011;22469;48.150;14.004;2022-12-08T04:18:31;16.70;;;13.17;;
3259;SDS011;22469;48.150;14.004;2022-12-08T04:20:59;20.23;;;14.83;;
3259;SDS011;22469;48.150;14.004;2022-12-08T04:23:26;18.30;;;13.73;;
3259;SDS011;22469;48.150;14.004;2022-12-08T04:25:53;20.70;;;15.40;;
3259;SDS011;22469;48.150;14.004;2022-12-08T04:28:20;16.67;;;13.37;;
3259;SDS011;22469;48.150;14.004;2022-12-08T04:30:48;16.50;;;12.20;;
3259;SDS011;22469;48.150;14.004;2022-12-08T04:33:15;15.90;;;13.10;;
3259;SDS011;22469;48.150;14.004;2022-12-08T04:35:43;18.70;;;12.10;;
3259;SDS011;22469;48.150;14.004;2022-12-08T04:38:10;19.57;;;13.27;;
3259;SDS011;22469;48.150;14.004;2022-12-08T04:40:37;14.23;;;12.73;;
3259;SDS011;22469;48.150;14.004;2022-12-08T04:43:05;15.53;;;12.90;;
3259;SDS011;22469;48.150;14.004;2022-12-08T04:45:32;14.13;;;12.40;;
3259;SDS011;22469;48.150;14.004;2022-12-08T04:48:00;20.90;;;12.37;;
3259;SDS011;22469;48.150;14.004;2022-12-08T04:50:27;15.53;;;10.50;;
3259;SDS011;22469;48.150;14.004;2022-12-08T04:52:55;14.20;;;10.50;;
3259;SDS011;22469;48.150;14.004;2022-12-08T04:55:22;15.97;;;11.70;;
3259;SDS011;22469;48.150;14.004;2022-12-08T04:57:49;14.27;;;10.87;;
3259;SDS011;22469;48.150;14.004;2022-12-08T05:00:16;14.77;;;13.03;;
3259;SDS011;22469;48.150;14.004;2022-12-08T05:02:44;16.23;;;10.47;;
3259;SDS011;22469;48.150;14.004;2022-12-08T05:05:11;15.50;;;12.00;;
3259;SDS011;22469;48.150;14.004;2022-12-08T05:07:38;14.40;;;11.07;;
3259;SDS011;22469;48.150;14.004;2022-12-08T05:10:05;20.13;;;13.90;;
3259;SDS011;22469;48.150;14.004;2022-12-08T05:12:33;14.17;;;10.97;;
3259;SDS011;22469;48.150;14.004;2022-12-08T05:15:00;12.87;;;11.33;;
3259;SDS011;22469;48.150;14.004;2022-12-08T05:17:27;21.83;;;16.43;;
3259;SDS011;22469;48.150;14.004;2022-12-08T05:19:55;20.30;;;13.20;;
3259;SDS011;22469;48.150;14.004;2022-12-08T05:22:22;20.97;;;14.83;;
3259;SDS011;22469;48.150;14.004;2022-12-08T05:24:49;19.90;;;15.50;;
3259;SDS011;22469;48.150;14.004;2022-12-08T05:27:16;19.00;;;13.00;;
3259;SDS011;22469;48.150;14.004;2022-12-08T05:29:43;16.30;;;13.20;;
3259;SDS011;22469;48.150;14.004;2022-12-08T05:32:10;14.90;;;12.63;;
3259;SDS011;22469;48.150;14.004;2022-12-08T05:34:37;13.30;;;11.87;;
3259;SDS011;22469;48.150;14.004;2022-12-08T05:37:04;14.47;;;12.03;;
3259;SDS011;22469;48.150;14.004;2022-12-08T05:39:31;18.60;;;13.30;;
3259;SDS011;22469;48.150;14.004;2022-12-08T05:41:58;12.87;;;11.50;;
3259;SDS011;22469;48.150;14.004;2022-12-08T05:44:25;15.80;;;10.87;;
3259;SDS011;22469;48.150;14.004;2022-12-08T05:46:52;17.30;;;12.70;;
3259;SDS011;22469;48.150;14.004;2022-12-08T05:49:19;15.80;;;11.07;;
3259;SDS011;22469;48.150;14.004;2022-12-08T05:51:46;12.93;;;11.10;;
3259;SDS011;22469;48.150;14.004;2022-12-08T05:54:13;14.00;;;11.20;;
3259;SDS011;22469;48.150;14.004;2022-12-08T05:56:40;17.13;;;13.17;;
3259;SDS011;22469;48.150;14.004;2022-12-08T05:59:07;17.13;;;12.37;;
3259;SDS011;22469;48.150;14.004;2022-12-08T06:01:34;14.30;;;11.80;;
3259;SDS011;22469;48.150;14.004;2022-12-08T06:04:02;14.10;;;11.00;;
3259;SDS011;22469;48.150;14.004;2022-12-08T06:06:30;12.80;;;10.27;;
3259;SDS011;22469;48.150;14.004;2022-12-08T06:09:01;15.40;;;11.67;;
3259;SDS011;22469;48.150;14.004;2022-12-08T06:11:29;12.77;;;9.57;;
3259;SDS011;22469;48.150;14.004;2022-12-08T06:13:58;10.47;;;9.47;;
3259;SDS011;22469;48.150;14.004;2022-12-08T06:16:26;11.70;;;10.00;;
3259;SDS011;22469;48.150;14.004;2022-12-08T06:18:55;12.07;;;10.63;;
3259;SDS011;22469;48.150;14.004;2022-12-08T06:21:23;16.57;;;13.43;;
3259;SDS011;22469;48.150;14.004;2022-12-08T06:23:51;13.50;;;10.83;;
3259;SDS011;22469;48.150;14.004;2022-12-08T06:26:19;14.10;;;12.70;;
3259;SDS011;22469;48.150;14.004;2022-12-08T06:28:47;16.90;;;13.10;;
3259;SDS011;22469;48.150;14.004;2022-12-08T06:31:17;16.03;;;11.53;;
3259;SDS011;22469;48.150;14.004;2022-12-08T06:33:50;13.03;;;11.70;;
3259;SDS011;22469;48.150;14.004;2022-12-08T06:36:19;13.53;;;12.03;;
3259;SDS011;22469;48.150;14.004;2022-12-08T06:38:49;15.03;;;12.53;;
3259;SDS011;22469;48.150;14.004;2022-12-08T06:41:17;17.33;;;11.70;;
3259;SDS011;22469;48.150;14.004;2022-12-08T06:43:44;12.57;;;11.37;;
3259;SDS011;22469;48.150;14.004;2022-12-08T06:46:13;15.60;;;12.47;;
3259;SDS011;22469;48.150;14.004;2022-12-08T06:48:44;14.57;;;11.67;;
3259;SDS011;22469;48.150;14.004;2022-12-08T06:51:16;12.43;;;11.13;;
3259;SDS011;22469;48.150;14.004;2022-12-08T06:53:46;15.50;;;12.37;;
3259;SDS011;22469;48.150;14.004;2022-12-08T06:56:13;15.33;;;12.73;;
3259;SDS011;22469;48.150;14.004;2022-12-08T06:58:41;14.60;;;12.13;;
3259;SDS011;22469;48.150;14.004;2022-12-08T07:01:15;16.03;;;12.83;;
3259;SDS011;22469;48.150;14.004;2022-12-08T07:03:43;14.37;;;10.63;;
3259;SDS011;22469;48.150;14.004;2022-12-08T07:06:13;13.00;;;11.20;;
3259;SDS011;22469;48.150;14.004;2022-12-08T07:08:44;17.20;;;12.13;;
3259;SDS011;22469;48.150;14.004;2022-12-08T07:11:11;12.50;;;10.90;;
3259;SDS011;22469;48.150;14.004;2022-12-08T07:13:46;15.67;;;11.20;;
3259;SDS011;22469;48.150;14.004;2022-12-08T07:16:13;16.40;;;12.10;;
3259;SDS011;22469;48.150;14.004;2022-12-08T07:18:40;17.27;;;12.37;;
3259;SDS011;22469;48.150;14.004;2022-12-08T07:21:10;13.27;;;11.90;;
3259;SDS011;22469;48.150;14.004;2022-12-08T07:23:40;14.47;;;11.30;;
3259;SDS011;22469;48.150;14.004;2022-12-08T07:26:09;11.93;;;9.87;;
3259;SDS011;22469;48.150;14.004;2022-12-08T07:28:38;19.17;;;11.70;;
3259;SDS011;22469;48.150;14.004;2022-12-08T07:31:07;14.87;;;12.40;;
3259;SDS011;22469;48.150;14.004;2022-12-08T07:33:46;23.10;;;16.43;;
3259;SDS011;22469;48.150;14.004;2022-12-08T07:36:14;20.13;;;15.80;;
3259;SDS011;22469;48.150;14.004;2022-12-08T07:38:41;17.60;;;12.63;;
3259;SDS011;22469;48.150;14.004;2022-12-08T07:41:13;12.93;;;11.63;;
3259;SDS011;22469;48.150;14.004;2022-12-08T07:43:48;13.23;;;11.93;;
3259;SDS011;22469;48.150;14.004;2022-12-08T07:46:17;23.90;;;17.07;;
3259;SDS011;22469;48.150;14.004;2022-12-08T07:48:46;21.30;;;16.40;;
3259;SDS011;22469;48.150;14.004;2022-12-08T07:51:14;18.53;;;15.40;;
3259;SDS011;22469;48.150;14.004;2022-12-08T07:53:42;30.37;;;24.10;;
3259;SDS011;22469;48.150;14.004;2022-12-08T07:56:19;33.87;;;27.87;;
3259;SDS011;22469;48.150;14.004;2022-12-08T07:58:47;17.80;;;13.03;;
3259;SDS011;22469;48.150;14.004;2022-12-08T08:01:22;14.07;;;11.87;;
3259;SDS011;22469;48.150;14.004;2022-12-08T08:03:53;13.53;;;12.20;;
3259;SDS011;22469;48.150;14.004;2022-12-08T08:06:21;12.43;;;11.13;;
3259;SDS011;22469;48.150;14.004;2022-12-08T08:08:49;15.23;;;13.57;;
3259;SDS011;22469;48.150;14.004;2022-12-08T08:11:16;14.03;;;12.53;;
3259;SDS011;22469;48.150;14.004;2022-12-08T08:13:47;14.47;;;13.07;;
3259;SDS011;22469;48.150;14.004;2022-12-08T08:16:16;14.70;;;13.20;;
3259;SDS011;22469;48.150;14.004;2022-12-08T08:18:45;17.17;;;14.73;;
3259;SDS011;22469;48.150;14.004;2022-12-08T08:21:15;13.63;;;12.27;;
3259;SDS011;22469;48.150;14.004;2022-12-08T08:24:04;13.77;;;11.20;;
3259;SDS011;22469;48.150;14.004;2022-12-08T08:26:31;13.53;;;12.13;;
3259;SDS011;22469;48.150;14.004;2022-12-08T08:28:59;16.10;;;12.60;;
3259;SDS011;22469;48.150;14.004;2022-12-08T08:31:26;15.63;;;13.43;;
3259;SDS011;22469;48.150;14.004;2022-12-08T08:33:54;15.60;;;13.97;;
3259;SDS011;22469;48.150;14.004;2022-12-08T08:36:22;18.13;;;14.00;;
3259;SDS011;22469;48.150;14.004;2022-12-08T08:38:49;14.90;;;13.30;;
3259;SDS011;22469;48.150;14.004;2022-12-08T08:41:16;17.60;;;13.83;;
3259;SDS011;22469;48.150;14.004;2022-12-08T08:43:43;14.23;;;12.10;;
3259;SDS011;22469;48.150;14.004;2022-12-08T08:46:10;15.03;;;12.13;;
3259;SDS011;22469;48.150;14.004;2022-12-08T08:48:37;13.73;;;12.20;;
3259;SDS011;22469;48.150;14.004;2022-12-08T08:51:11;16.10;;;12.00;;
3259;SDS011;22469;48.150;14.004;2022-12-08T08:53:40;15.17;;;11.50;;
3259;SDS011;22469;48.150;14.004;2022-12-08T08:56:09;11.77;;;9.87;;
3259;SDS011;22469;48.150;14.004;2022-12-08T08:58:41;11.07;;;9.97;;
3259;SDS011;22469;48.150;14.004;2022-12-08T09:01:08;12.70;;;11.40;;
3259;SDS011;22469;48.150;14.004;2022-12-08T09:03:42;12.50;;;9.47;;
3259;SDS011;22469;48.150;14.004;2022-12-08T09:06:10;12.20;;;10.50;;
3259;SDS011;22469;48.150;14.004;2022-12-08T09:08:39;14.53;;;10.93;;
3259;SDS011;22469;48.150;14.004;2022-12-08T09:11:07;9.77;;;8.77;;
3259;SDS011;22469;48.150;14.004;2022-12-08T09:13:35;11.37;;;10.23;;
3259;SDS011;22469;48.150;14.004;2022-12-08T09:16:03;12.10;;;10.03;;
3259;SDS011;22469;48.150;14.004;2022-12-08T09:18:33;13.33;;;11.30;;
3259;SDS011;22469;48.150;14.004;2022-12-08T09:21:07;13.33;;;10.33;;
3259;SDS011;22469;48.150;14.004;2022-12-08T09:23:38;11.70;;;10.63;;
3259;SDS011;22469;48.150;14.004;2022-12-08T09:26:05;11.47;;;10.00;;
3259;SDS011;22469;48.150;14.004;2022-12-08T09:28:33;11.17;;;9.53;;
3259;SDS011;22469;48.150;14.004;2022-12-08T09:31:01;10.37;;;9.33;;
3259;SDS011;22469;48.150;14.004;2022-12-08T09:33:28;11.63;;;10.43;;
3259;SDS011;22469;48.150;14.004;2022-12-08T09:35:55;10.73;;;9.50;;
3259;SDS011;22469;48.150;14.004;2022-12-08T09:38:22;11.80;;;10.40;;
3259;SDS011;22469;48.150;14.004;2022-12-08T09:40:52;12.10;;;10.23;;
3259;SDS011;22469;48.150;14.004;2022-12-08T09:46:05;12.77;;;10.67;;
3259;SDS011;22469;48.150;14.004;2022-12-08T09:48:37;12.83;;;9.57;;
3259;SDS011;22469;48.150;14.004;2022-12-08T09:51:10;10.23;;;9.13;;
3259;SDS011;22469;48.150;14.004;2022-12-08T09:56:18;11.43;;;10.30;;
3259;SDS011;22469;48.150;14.004;2022-12-08T10:01:31;10.40;;;9.00;;
3259;SDS011;22469;48.150;14.004;2022-12-08T10:04:05;11.63;;;9.00;;
3259;SDS011;22469;48.150;14.004;2022-12-08T10:09:46;9.27;;;8.03;;
3259;SDS011;22469;48.150;14.004;2022-12-08T10:14:57;11.90;;;9.37;;
3259;SDS011;22469;48.150;14.004;2022-12-08T10:17:39;9.73;;;8.77;;
3259;SDS011;22469;48.150;14.004;2022-12-08T10:20:13;9.33;;;8.27;;
3259;SDS011;22469;48.150;14.004;2022-12-08T10:22:58;11.63;;;9.80;;
3259;SDS011;22469;48.150;14.004;2022-12-08T10:25:47;11.47;;;9.60;;
3259;SDS011;22469;48.150;14.004;2022-12-08T10:28:22;11.20;;;9.60;;
3259;SDS011;22469;48.150;14.004;2022-12-08T10:30:49;9.90;;;8.87;;
3259;SDS011;22469;48.150;14.004;2022-12-08T10:33:17;10.40;;;9.20;;
3259;SDS011;22469;48.150;14.004;2022-12-08T10:38:16;14.87;;;10.50;;
3259;SDS011;22469;48.150;14.004;2022-12-08T10:40:49;11.23;;;10.10;;
3259;SDS011;22469;48.150;14.004;2022-12-08T10:43:21;11.20;;;8.90;;
3259;SDS011;22469;48.150;14.004;2022-12-08T10:45:51;11.37;;;10.27;;
3259;SDS011;22469;48.150;14.004;2022-12-08T10:48:20;9.40;;;8.50;;
3259;SDS011;22469;48.150;14.004;2022-12-08T10:53:22;9.93;;;9.03;;
3259;SDS011;22469;48.150;14.004;2022-12-08T10:56:04;11.53;;;10.33;;
3259;SDS011;22469;48.150;14.004;2022-12-08T10:58:38;10.30;;;8.30;;
3259;SDS011;22469;48.150;14.004;2022-12-08T11:01:21;9.30;;;8.40;;
3259;SDS011;22469;48.150;14.004;2022-12-08T11:03:56;8.63;;;7.80;;
3259;SDS011;22469;48.150;14.004;2022-12-08T11:06:36;10.30;;;8.70;;
3259;SDS011;22469;48.150;14.004;2022-12-08T11:11:49;8.13;;;7.33;;
3259;SDS011;22469;48.150;14.004;2022-12-08T11:19:43;8.57;;;6.13;;
3259;SDS011;22469;48.150;14.004;2022-12-08T11:22:23;6.77;;;6.10;;
3259;SDS011;22469;48.150;14.004;2022-12-08T11:27:34;7.60;;;7.00;;
3259;SDS011;22469;48.150;14.004;2022-12-08T11:30:13;9.53;;;8.40;;
3259;SDS011;22469;48.150;14.004;2022-12-08T11:35:48;8.07;;;7.10;;
3259;SDS011;22469;48.150;14.004;2022-12-08T11:38:22;8.37;;;7.63;;
3259;SDS011;22469;48.150;14.004;2022-12-08T11:43:54;8.60;;;7.40;;
3259;SDS011;22469;48.150;14.004;2022-12-08T11:46:47;9.53;;;8.23;;
3259;SDS011;22469;48.150;14.004;2022-12-08T11:49:24;11.70;;;7.57;;
3259;SDS011;22469;48.150;14.004;2022-12-08T11:52:05;9.70;;;7.87;;
3259;SDS011;22469;48.150;14.004;2022-12-08T11:54:59;8.43;;;7.63;;
3259;SDS011;22469;48.150;14.004;2022-12-08T11:58:12;8.70;;;7.80;;
3259;SDS011;22469;48.150;14.004;2022-12-08T12:01:11;7.73;;;6.80;;
3259;SDS011;22469;48.150;14.004;2022-12-08T12:03:48;7.30;;;6.60;;
3259;SDS011;22469;48.150;14.004;2022-12-08T12:12:51;9.30;;;8.50;;
3259;SDS011;22469;48.150;14.004;2022-12-08T12:18:49;11.87;;;9.93;;
3259;SDS011;22469;48.150;14.004;2022-12-08T12:21:35;8.23;;;6.97;;
3259;SDS011;22469;48.150;14.004;2022-12-08T12:24:17;9.30;;;8.40;;
3259;SDS011;22469;48.150;14.004;2022-12-08T12:26:58;11.30;;;9.17;;
3259;SDS011;22469;48.150;14.004;2022-12-08T12:29:32;9.57;;;8.70;;
3259;SDS011;22469;48.150;14.004;2022-12-08T12:32:03;10.53;;;8.93;;
3259;SDS011;22469;48.150;14.004;2022-12-08T12:34:48;8.27;;;7.57;;
3259;SDS011;22469;48.150;14.004;2022-12-08T12:37:25;10.70;;;9.70;;
3259;SDS011;22469;48.150;14.004;2022-12-08T12:40:04;10.80;;;8.30;;
3259;SDS011;22469;48.150;14.004;2022-12-08T12:42:47;9.40;;;7.90;;
3259;SDS011;22469;48.150;14.004;2022-12-08T12:45:30;9.30;;;8.27;;
3259;SDS011;22469;48.150;14.004;2022-12-08T12:53:45;9.17;;;8.20;;
3259;SDS011;22469;48.150;14.004;2022-12-08T12:55:55;9.60;;;8.67;;
3259;SDS011;22469;48.150;14.004;2022-12-08T13:06:10;15.90;;;10.43;;
3259;SDS011;22469;48.150;14.004;2022-12-08T13:08:50;10.67;;;9.57;;
3259;SDS011;22469;48.150;14.004;2022-12-08T13:11:20;10.07;;;9.13;;
3259;SDS011;22469;48.150;14.004;2022-12-08T13:14:02;12.47;;;10.33;;
3259;SDS011;22469;48.150;14.004;2022-12-08T13:16:31;9.63;;;8.63;;
3259;SDS011;22469;48.150;14.004;2022-12-08T13:19:03;10.90;;;9.50;;
3259;SDS011;22469;48.150;14.004;2022-12-08T13:21:36;15.87;;;13.33;;
3259;SDS011;22469;48.150;14.004;2022-12-08T13:24:24;10.27;;;9.20;;
3259;SDS011;22469;48.150;14.004;2022-12-08T13:29:29;12.05;;;10.95;;
3259;SDS011;22469;48.150;14.004;2022-12-08T13:40:21;11.00;;;8.60;;
3259;SDS011;22469;48.150;14.004;2022-12-08T13:43:05;8.60;;;7.70;;
3259;SDS011;22469;48.150;14.004;2022-12-08T13:45:50;8.13;;;7.33;;
3259;SDS011;22469;48.150;14.004;2022-12-08T13:48:44;10.97;;;8.27;;
3259;SDS011;22469;48.150;14.004;2022-12-08T13:51:41;11.00;;;9.70;;
3259;SDS011;22469;48.150;14.004;2022-12-08T13:54:40;11.60;;;10.20;;
3259;SDS011;22469;48.150;14.004;2022-12-08T13:57:29;14.70;;;11.60;;
3259;SDS011;22469;48.150;14.004;2022-12-08T14:00:02;17.23;;;15.40;;
3259;SDS011;22469;48.150;14.004;2022-12-08T14:02:50;12.40;;;10.40;;
3259;SDS011;22469;48.150;14.004;2022-12-08T14:05:23;11.73;;;10.53;;
3259;SDS011;22469;48.150;14.004;2022-12-08T14:08:17;12.33;;;11.03;;
3259;SDS011;22469;48.150;14.004;2022-12-08T14:11:23;13.57;;;12.30;;
3259;SDS011;22469;48.150;14.004;2022-12-08T14:14:05;15.13;;;12.70;;
3259;SDS011;22469;48.150;14.004;2022-12-08T14:17:18;18.23;;;12.50;;
3259;SDS011;22469;48.150;14.004;2022-12-08T14:20:23;14.70;;;13.20;;
3259;SDS011;22469;48.150;14.004;2022-12-08T14:22:52;16.13;;;13.53;;
3259;SDS011;22469;48.150;14.004;2022-12-08T14:25:20;17.93;;;14.50;;
3259;SDS011;22469;48.150;14.004;2022-12-08T14:27:48;12.73;;;11.27;;
3259;SDS011;22469;48.150;14.004;2022-12-08T14:30:20;15.43;;;13.30;;
3259;SDS011;22469;48.150;14.004;2022-12-08T14:32:55;15.40;;;12.50;;
3259;SDS011;22469;48.150;14.004;2022-12-08T14:38:03;15.33;;;13.70;;
3259;SDS011;22469;48.150;14.004;2022-12-08T14:40:43;17.90;;;14.70;;
3259;SDS011;22469;48.150;14.004;2022-12-08T14:43:15;15.70;;;14.00;;
3259;SDS011;22469;48.150;14.004;2022-12-08T14:45:47;15.63;;;13.93;;
3259;SDS011;22469;48.150;14.004;2022-12-08T14:48:23;16.20;;;14.57;;
3259;SDS011;22469;48.150;14.004;2022-12-08T14:53:37;16.27;;;13.93;;
3259;SDS011;22469;48.150;14.004;2022-12-08T14:56:25;16.00;;;13.77;;
3259;SDS011;22469;48.150;14.004;2022-12-08T14:59:19;18.47;;;14.37;;
3259;SDS011;22469;48.150;14.004;2022-12-08T15:04:42;17.70;;;13.90;;
3259;SDS011;22469;48.150;14.004;2022-12-08T15:07:13;16.97;;;13.83;;
3259;SDS011;22469;48.150;14.004;2022-12-08T15:09:46;15.63;;;13.00;;
3259;SDS011;22469;48.150;14.004;2022-12-08T15:12:22;17.97;;;14.37;;
3259;SDS011;22469;48.150;14.004;2022-12-08T15:19:55;16.13;;;14.10;;
3259;SDS011;22469;48.150;14.004;2022-12-08T15:22:25;20.13;;;16.13;;
3259;SDS011;22469;48.150;14.004;2022-12-08T15:24:55;16.60;;;14.63;;
3259;SDS011;22469;48.150;14.004;2022-12-08T15:27:23;15.90;;;13.63;;
3259;SDS011;22469;48.150;14.004;2022-12-08T15:29:51;18.70;;;14.90;;
3259;SDS011;22469;48.150;14.004;2022-12-08T15:32:20;15.53;;;13.93;;
3259;SDS011;22469;48.150;14.004;2022-12-08T15:34:48;16.33;;;13.80;;
3259;SDS011;22469;48.150;14.004;2022-12-08T15:37:19;15.57;;;13.93;;
3259;SDS011;22469;48.150;14.004;2022-12-08T15:39:50;17.30;;;15.57;;
3259;SDS011;22469;48.150;14.004;2022-12-08T15:42:18;16.90;;;15.10;;
3259;SDS011;22469;48.150;14.004;2022-12-08T15:44:45;18.03;;;14.00;;
3259;SDS011;22469;48.150;14.004;2022-12-08T15:47:16;19.47;;;14.40;;
3259;SDS011;22469;48.150;14.004;2022-12-08T15:49:50;17.90;;;14.60;;
3259;SDS011;22469;48.150;14.004;2022-12-08T15:52:21;18.27;;;15.10;;
3259;SDS011;22469;48.150;14.004;2022-12-08T15:54:50;16.50;;;13.97;;
3259;SDS011;22469;48.150;14.004;2022-12-08T16:00:34;16.30;;;14.40;;
3259;SDS011;22469;48.150;14.004;2022-12-08T16:06:15;18.27;;;14.67;;
3259;SDS011;22469;48.150;14.004;2022-12-08T16:09:07;21.37;;;15.47;;
3259;SDS011;22469;48.150;14.004;2022-12-08T16:11:46;27.40;;;18.53;;
3259;SDS011;22469;48.150;14.004;2022-12-08T16:14:46;24.67;;;17.67;;
3259;SDS011;22469;48.150;14.004;2022-12-08T16:17:33;21.70;;;15.87;;
3259;SDS011;22469;48.150;14.004;2022-12-08T16:20:02;21.07;;;17.90;;
3259;SDS011;22469;48.150;14.004;2022-12-08T16:22:32;20.13;;;16.97;;
3259;SDS011;22469;48.150;14.004;2022-12-08T16:25:19;21.70;;;16.77;;
3259;SDS011;22469;48.150;14.004;2022-12-08T16:27:49;25.70;;;18.60;;
3259;SDS011;22469;48.150;14.004;2022-12-08T16:30:39;24.40;;;19.67;;
3259;SDS011;22469;48.150;14.004;2022-12-08T16:33:08;31.87;;;22.03;;
3259;SDS011;22469;48.150;14.004;2022-12-08T16:35:37;29.10;;;23.00;;
3259;SDS011;22469;48.150;14.004;2022-12-08T16:38:04;30.50;;;22.67;;
3259;SDS011;22469;48.150;14.004;2022-12-08T16:40:31;31.27;;;22.70;;
3259;SDS011;22469;48.150;14.004;2022-12-08T16:43:19;32.27;;;24.10;;
3259;SDS011;22469;48.150;14.004;2022-12-08T16:45:46;29.07;;;21.80;;
3259;SDS011;22469;48.150;14.004;2022-12-08T16:48:13;32.27;;;20.40;;
3259;SDS011;22469;48.150;14.004;2022-12-08T16:50:42;31.00;;;22.23;;
3259;SDS011;22469;48.150;14.004;2022-12-08T16:53:11;29.27;;;21.63;;
3259;SDS011;22469;48.150;14.004;2022-12-08T16:55:38;35.67;;;25.20;;
3259;SDS011;22469;48.150;14.004;2022-12-08T16:58:07;45.87;;;29.17;;
3259;SDS011;22469;48.150;14.004;2022-12-08T17:00:34;44.63;;;29.83;;